createdAt,value
2022-11-15T00:02:13.440Z,73.37
2022-11-15T00:05:21.318Z,73.86
2022-11-15T00:08:23.635Z,73.95
2022-11-15T00:11:30.093Z,73.57
2022-11-15T00:14:36.985Z,73.72
2022-11-15T00:17:43.964Z,73.61
2022-11-15T00:20:52.149Z,73.28
2022-11-15T00:23:52.395Z,73.79
2022-11-15T00:26:59.985Z,73.16
2022-11-15T00:30:00.398Z,73.46
2022-11-15T00:33:12.008Z,73.07
2022-11-15T00:36:17.447Z,73.61
2022-11-15T00:39:26.089Z,73.54
2022-11-15T00:42:33.075Z,73.46
2022-11-15T00:45:34.487Z,73.63
2022-11-15T00:48:41.093Z,73.42
2022-11-15T00:51:41.265Z,73.39
2022-11-15T00:54:48.059Z,72.89
2022-11-15T00:57:49.331Z,73.06
2022-11-15T01:00:56.161Z,73.18
2022-11-15T01:04:01.102Z,73.98
2022-11-15T01:07:08.111Z,73.19
2022-11-15T01:10:08.980Z,73.27
2022-11-15T01:13:16.112Z,73.54
2022-11-15T01:16:20.509Z,73.16
2022-11-15T01:19:27.075Z,73.41
2022-11-15T01:22:27.318Z,73.08
2022-11-15T01:25:35.007Z,72.83
2022-11-15T01:28:44.109Z,73.08
2022-11-15T01:31:45.374Z,72.58
2022-11-15T01:34:51.998Z,73.45
2022-11-15T01:37:53.041Z,73.17
2022-11-15T01:41:01.083Z,73.57
2022-11-15T01:44:21.446Z,72.85
2022-11-15T01:47:38.062Z,72.71
2022-11-15T01:50:41.364Z,72.74
2022-11-15T01:53:52.098Z,72.94
2022-11-15T01:57:05.533Z,72.67
2022-11-15T02:00:14.060Z,72.42
2022-11-15T02:03:22.054Z,72.60
2022-11-15T02:06:31.052Z,72.34
2022-11-15T02:09:38.061Z,71.94
2022-11-15T02:12:40.482Z,72.21
2022-11-15T02:16:02.843Z,72.45
2022-11-15T02:19:42.069Z,71.60
2022-11-15T02:23:16.340Z,71.63
2022-11-15T02:26:58.126Z,71.36
2022-11-15T02:30:38.052Z,71.76
2022-11-15T02:33:58.064Z,71.22
2022-11-15T02:37:25.076Z,70.81
2022-11-15T02:40:56.985Z,69.71
2022-11-15T02:44:06.263Z,70.34
2022-11-15T02:47:23.064Z,70.50
2022-11-15T02:50:27.410Z,69.77
2022-11-15T02:53:34.380Z,68.65
2022-11-15T02:56:35.612Z,68.12
2022-11-15T03:00:01.071Z,68.61
2022-11-15T03:03:26.124Z,66.50
2022-11-15T03:06:57.111Z,66.82
2022-11-15T03:10:15.057Z,67.08
2022-11-15T03:13:35.362Z,66.08
2022-11-15T03:17:11.045Z,66.26
2022-11-15T03:20:22.162Z,65.58
2022-11-15T03:23:30.270Z,64.69
2022-11-15T03:26:34.522Z,64.90
2022-11-15T03:29:51.052Z,62.94
2022-11-15T03:33:08.069Z,63.65
2022-11-15T03:36:08.566Z,62.26
2022-11-15T03:39:21.067Z,61.36
2022-11-15T03:42:36.040Z,59.42
2022-11-15T03:45:51.070Z,59.11
2022-11-15T03:48:59.293Z,56.47
2022-11-15T03:52:07.050Z,55.07
2022-11-15T03:55:20.001Z,55.38
2022-11-15T03:58:27.076Z,52.60
2022-11-15T04:01:34.151Z,52.12
2022-11-15T04:04:34.482Z,51.58
2022-11-15T04:07:41.054Z,51.56
2022-11-15T04:10:41.332Z,52.60
2022-11-15T04:13:49.039Z,51.04
2022-11-15T04:16:56.039Z,52.00
2022-11-15T04:20:27.904Z,50.87
2022-11-15T04:23:53.040Z,50.08
2022-11-15T04:26:53.792Z,49.46
2022-11-15T04:30:01.045Z,50.04
2022-11-15T04:33:01.428Z,49.14
2022-11-15T04:36:27.047Z,51.06
2022-11-15T04:39:34.049Z,49.31
2022-11-15T04:42:34.334Z,51.54
2022-11-15T04:45:41.069Z,50.16
2022-11-15T04:48:42.414Z,50.02
2022-11-15T04:51:49.046Z,48.86
2022-11-15T04:54:49.386Z,50.27
2022-11-15T04:57:56.058Z,48.78
2022-11-15T05:01:03.157Z,48.89
2022-11-15T05:04:21.553Z,47.70
2022-11-15T05:07:28.973Z,48.23
2022-11-15T05:10:37.057Z,47.30
2022-11-15T05:13:38.262Z,47.53
2022-11-15T05:16:45.033Z,49.56
2022-11-15T05:20:00.970Z,47.57
2022-11-15T05:23:08.045Z,47.47
2022-11-15T05:26:09.596Z,49.23
2022-11-15T05:29:19.958Z,48.14
2022-11-15T05:32:21.315Z,47.44
2022-11-15T05:35:50.979Z,47.29
2022-11-15T05:38:59.053Z,47.25
2022-11-15T05:42:07.043Z,47.28
2022-11-15T05:45:15.972Z,47.61
2022-11-15T05:48:17.053Z,45.68
2022-11-15T05:51:24.979Z,48.31
2022-11-15T05:54:25.719Z,47.93
2022-11-15T05:57:34.060Z,47.15
2022-11-15T06:00:34.687Z,48.05
2022-11-15T06:03:42.042Z,47.94
2022-11-15T06:06:42.254Z,46.77
2022-11-15T06:09:49.095Z,47.43
2022-11-15T06:12:58.121Z,46.79
2022-11-15T06:16:04.964Z,47.99
2022-11-15T06:19:05.209Z,48.17
2022-11-15T06:22:11.949Z,47.52
2022-11-15T06:25:12.433Z,46.25
2022-11-15T06:28:20.025Z,46.82
2022-11-15T06:31:21.236Z,46.88
2022-11-15T06:34:27.946Z,45.01
2022-11-15T06:37:29.240Z,47.36
2022-11-15T06:40:36.947Z,47.49
2022-11-15T06:43:38.732Z,45.27
2022-11-15T06:46:40.047Z,45.47
2022-11-15T06:49:40.314Z,46.38
2022-11-15T06:52:46.941Z,47.76
2022-11-15T06:55:55.683Z,45.70
2022-11-15T06:59:02.944Z,46.58
2022-11-15T07:02:09.952Z,46.86
2022-11-15T07:05:10.327Z,47.67
2022-11-15T07:08:18.050Z,45.73
2022-11-15T07:11:25.016Z,46.17
2022-11-15T07:14:32.966Z,46.26
2022-11-15T07:17:41.047Z,45.40
2022-11-15T07:20:48.967Z,46.19
2022-11-15T07:23:56.946Z,45.84
2022-11-15T07:26:57.325Z,46.49
2022-11-15T07:30:04.954Z,48.48
2022-11-15T07:33:07.326Z,46.42
2022-11-15T07:36:16.046Z,46.96
2022-11-15T07:39:17.303Z,45.76
2022-11-15T07:42:43.089Z,45.74
2022-11-15T07:45:49.315Z,44.82
2022-11-15T07:48:57.051Z,45.04
2022-11-15T07:51:57.301Z,46.70
2022-11-15T07:55:04.033Z,46.25
2022-11-15T07:58:15.352Z,45.91
2022-11-15T08:01:22.040Z,46.97
2022-11-15T08:04:23.352Z,45.98
2022-11-15T08:07:30.031Z,47.24
2022-11-15T08:10:30.295Z,47.27
2022-11-15T08:13:38.956Z,47.29
2022-11-15T08:16:47.034Z,45.89
2022-11-15T08:20:00.890Z,47.53
2022-11-15T08:23:16.034Z,46.61
2022-11-15T08:26:16.632Z,46.43
2022-11-15T08:29:24.021Z,47.75
2022-11-15T08:32:24.293Z,46.59
2022-11-15T08:35:32.021Z,46.56
2022-11-15T08:38:32.820Z,47.34
2022-11-15T08:41:46.946Z,48.04
2022-11-15T08:44:54.040Z,46.72
2022-11-15T08:47:54.771Z,47.41
2022-11-15T08:51:04.035Z,48.20
2022-11-15T08:54:04.305Z,48.92
2022-11-15T08:57:11.944Z,48.32
2022-11-15T09:00:21.098Z,48.07
2022-11-15T09:03:28.922Z,48.54
2022-11-15T09:06:40.838Z,48.79
2022-11-15T09:09:50.092Z,49.22
2022-11-15T09:12:51.364Z,48.68
2022-11-15T09:15:58.035Z,47.89
2022-11-15T09:18:58.397Z,48.72
2022-11-15T09:22:05.048Z,48.46
2022-11-15T09:25:11.952Z,47.69
2022-11-15T09:28:19.028Z,48.65
2022-11-15T09:31:21.126Z,47.29
2022-11-15T09:34:29.958Z,48.23
2022-11-15T09:37:30.455Z,49.16
2022-11-15T09:40:39.029Z,48.26
2022-11-15T09:44:28.055Z,48.08
2022-11-15T09:47:42.959Z,48.02
2022-11-15T09:50:57.023Z,48.34
2022-11-15T09:57:02.319Z,47.98
2022-11-15T10:00:43.899Z,48.08
2022-11-15T10:03:47.953Z,49.36
2022-11-15T10:06:30.403Z,49.34
2022-11-15T10:09:56.959Z,49.35
2022-11-15T10:12:39.646Z,48.03
2022-11-15T10:15:32.357Z,49.77
2022-11-15T10:18:24.160Z,48.34
2022-11-15T10:21:28.101Z,52.08
2022-11-15T10:24:14.864Z,51.52
2022-11-15T10:27:05.075Z,48.35
2022-11-15T10:29:58.334Z,47.74
2022-11-15T10:32:44.945Z,48.64
2022-11-15T10:35:28.726Z,47.92
2022-11-15T10:38:26.038Z,49.48
2022-11-15T10:41:18.017Z,50.87
2022-11-15T10:44:18.329Z,49.12
2022-11-15T10:47:06.949Z,50.13
2022-11-15T10:50:17.118Z,49.46
2022-11-15T10:53:06.926Z,49.78
2022-11-15T10:56:01.951Z,50.10
2022-11-15T10:58:58.922Z,50.32
2022-11-15T11:01:55.361Z,52.25
2022-11-15T11:04:58.929Z,50.82
2022-11-15T11:07:43.285Z,49.85
2022-11-15T11:10:51.472Z,49.25
2022-11-15T11:13:39.363Z,49.80
2022-11-15T11:16:57.957Z,51.14
2022-11-15T11:19:57.008Z,51.19
2022-11-15T11:23:06.400Z,52.15
2022-11-15T11:26:24.915Z,51.29
2022-11-15T11:29:51.155Z,53.04
2022-11-15T11:33:04.028Z,53.18
2022-11-15T11:36:06.311Z,51.81
2022-11-15T11:39:25.928Z,53.07
2022-11-15T11:42:40.959Z,53.06
2022-11-15T11:45:23.315Z,53.90
2022-11-15T11:48:36.032Z,53.77
2022-11-15T11:51:25.360Z,53.99
2022-11-15T11:54:29.085Z,54.17
2022-11-15T11:57:20.474Z,55.03
2022-11-15T12:03:11.382Z,55.51
2022-11-15T12:06:06.014Z,56.20
2022-11-15T12:09:09.622Z,55.93
2022-11-15T12:12:07.020Z,55.73
2022-11-15T12:15:00.303Z,57.40
2022-11-15T12:17:50.933Z,57.49
2022-11-15T12:20:37.097Z,56.54
2022-11-15T12:23:41.307Z,57.48
2022-11-15T12:26:36.953Z,58.17
2022-11-15T12:29:35.498Z,58.11
2022-11-15T12:32:53.924Z,56.70
2022-11-15T12:35:51.292Z,58.62
2022-11-15T12:39:12.026Z,57.33
2022-11-15T12:42:06.347Z,57.89
2022-11-15T12:44:48.080Z,57.24
2022-11-15T12:47:30.259Z,57.43
2022-11-15T12:50:20.026Z,57.49
2022-11-15T12:53:26.722Z,57.90
2022-11-15T12:56:28.008Z,56.49
2022-11-15T12:59:10.258Z,58.09
2022-11-15T13:01:58.938Z,57.24
2022-11-15T13:04:47.308Z,55.52
2022-11-15T13:07:52.012Z,56.22
2022-11-15T13:10:42.899Z,57.90
2022-11-15T13:14:03.020Z,57.80
2022-11-15T13:16:52.988Z,58.07
2022-11-15T13:19:35.310Z,58.36
2022-11-15T13:22:42.001Z,59.78
2022-11-15T13:25:35.301Z,59.88
2022-11-15T13:28:24.005Z,59.71
2022-11-15T13:31:16.052Z,58.14
2022-11-15T13:34:23.042Z,59.25
2022-11-15T13:37:21.911Z,59.26
2022-11-15T13:40:28.995Z,59.60
2022-11-15T13:43:32.490Z,59.54
2022-11-15T13:46:33.027Z,58.95
2022-11-15T13:49:25.014Z,59.40
2022-11-15T13:52:18.515Z,58.65
2022-11-15T13:55:17.918Z,59.34
2022-11-15T13:58:14.629Z,59.17
2022-11-15T14:01:07.009Z,60.78
2022-11-15T14:04:05.363Z,59.73
2022-11-15T14:06:56.982Z,59.56
2022-11-15T14:09:48.393Z,60.13
2022-11-15T14:12:45.010Z,60.24
2022-11-15T14:15:42.291Z,60.73
2022-11-15T14:18:49.013Z,60.57
2022-11-15T14:21:45.854Z,61.03
2022-11-15T14:24:42.912Z,60.74
2022-11-15T14:27:39.902Z,59.33
2022-11-15T14:30:28.934Z,58.98
2022-11-15T14:33:33.009Z,59.75
2022-11-15T14:36:28.008Z,60.68
2022-11-15T14:39:12.974Z,60.81
2022-11-15T14:42:02.007Z,60.97
2022-11-15T14:44:51.002Z,60.71
2022-11-15T14:47:39.279Z,61.10
2022-11-15T14:50:27.089Z,60.84
2022-11-15T14:53:16.794Z,60.79
2022-11-15T14:56:00.021Z,60.89
2022-11-15T14:58:49.284Z,60.82
2022-11-15T15:01:35.005Z,60.46
2022-11-15T15:04:17.209Z,61.35
2022-11-15T15:07:05.990Z,61.83
2022-11-15T15:10:06.730Z,61.43
2022-11-15T15:12:58.325Z,61.66
2022-11-15T15:15:46.939Z,62.02
2022-11-15T15:18:29.450Z,62.24
2022-11-15T15:21:37.596Z,63.38
2022-11-15T15:24:20.386Z,63.69
2022-11-15T15:27:09.016Z,63.17
2022-11-15T15:29:51.237Z,63.56
2022-11-15T15:32:40.021Z,63.54
2022-11-15T15:35:23.077Z,63.11
2022-11-15T15:38:12.945Z,64.31
2022-11-15T15:41:02.586Z,63.31
2022-11-15T15:43:46.497Z,62.92
2022-11-15T15:46:38.310Z,62.68
2022-11-15T15:49:21.030Z,63.06
2022-11-15T15:52:10.049Z,62.91
2022-11-15T15:54:52.290Z,63.70
2022-11-15T15:57:43.251Z,62.53
2022-11-15T16:00:26.838Z,62.54
2022-11-15T16:03:15.974Z,62.43
2022-11-15T16:06:01.939Z,63.11
2022-11-15T16:09:13.370Z,63.43
2022-11-15T16:11:54.422Z,63.65
2022-11-15T16:14:46.026Z,63.64
2022-11-15T16:17:34.408Z,63.87
2022-11-15T16:20:47.006Z,63.26
2022-11-15T16:23:36.425Z,63.95
2022-11-15T16:26:36.026Z,64.58
2022-11-15T16:29:27.780Z,64.81
2022-11-15T16:32:17.085Z,64.58
2022-11-15T16:35:06.987Z,65.06
2022-11-15T16:37:58.006Z,64.98
2022-11-15T16:40:40.391Z,65.30
2022-11-15T16:43:28.999Z,65.19
2022-11-15T16:46:30.016Z,64.89
2022-11-15T16:49:12.454Z,64.90
2022-11-15T16:52:00.973Z,65.71
2022-11-15T16:54:43.279Z,65.37
2022-11-15T16:57:31.989Z,65.72
2022-11-15T17:00:17.752Z,65.55
2022-11-15T17:03:06.902Z,65.82
2022-11-15T17:05:49.436Z,65.86
2022-11-15T17:08:37.988Z,65.50
2022-11-15T17:11:25.217Z,66.46
2022-11-15T17:14:13.999Z,66.90
2022-11-15T17:16:56.414Z,66.83
2022-11-15T17:19:44.976Z,67.18
2022-11-15T17:22:39.841Z,67.62
2022-11-15T17:25:28.969Z,67.18
2022-11-15T17:28:17.998Z,67.87
2022-11-15T17:31:01.010Z,68.02
2022-11-15T17:33:50.987Z,68.71
2022-11-15T17:36:40.496Z,68.15
2022-11-15T17:39:23.014Z,68.29
2022-11-15T17:42:05.475Z,67.84
2022-11-15T17:44:53.965Z,68.60
2022-11-15T17:47:36.291Z,68.94
2022-11-15T17:50:25.967Z,69.01
2022-11-15T17:53:08.294Z,69.33
2022-11-15T17:55:57.025Z,69.57
2022-11-15T17:58:46.465Z,69.80
2022-11-15T18:01:32.044Z,70.16
2022-11-15T18:04:22.946Z,70.19
2022-11-15T18:07:05.531Z,69.84
2022-11-15T18:09:53.991Z,70.00
2022-11-15T18:12:36.259Z,70.49
2022-11-15T18:15:26.962Z,70.71
2022-11-15T18:18:16.027Z,70.37
2022-11-15T18:21:11.992Z,70.83
2022-11-15T18:24:09.751Z,70.86
2022-11-15T18:26:52.970Z,70.73
2022-11-15T18:29:42.395Z,70.94
2022-11-15T18:32:24.988Z,70.94
2022-11-15T18:35:14.625Z,71.20
2022-11-15T18:37:56.988Z,71.80
2022-11-15T18:40:46.418Z,71.73
2022-11-15T18:43:27.956Z,71.69
2022-11-15T18:46:16.384Z,71.78
2022-11-15T18:49:06.964Z,72.72
2022-11-15T18:51:57.159Z,71.91
2022-11-15T18:54:38.954Z,72.24
2022-11-15T18:57:21.207Z,72.56
2022-11-15T19:00:11.324Z,72.14
2022-11-15T19:03:02.437Z,72.40
2022-11-15T19:05:46.477Z,72.07
2022-11-15T19:08:31.683Z,72.13
2022-11-15T19:11:46.887Z,72.25
2022-11-15T19:14:36.957Z,71.66
2022-11-15T19:17:19.402Z,71.35
2022-11-15T19:20:07.961Z,71.37
2022-11-15T19:22:56.263Z,72.01
2022-11-15T19:25:37.974Z,71.80
2022-11-15T19:28:20.120Z,71.72
2022-11-15T19:31:09.969Z,72.53
2022-11-15T19:33:54.847Z,72.58
2022-11-15T19:36:48.630Z,73.01
2022-11-15T19:39:31.229Z,72.92
2022-11-15T19:42:19.976Z,72.33
2022-11-15T19:45:02.126Z,72.81
2022-11-15T19:47:51.001Z,73.23
2022-11-15T19:50:36.217Z,73.62
2022-11-15T19:53:24.960Z,74.02
2022-11-15T19:56:23.916Z,73.02
2022-11-15T19:59:12.948Z,73.03
2022-11-15T20:01:55.349Z,73.51
2022-11-15T20:04:43.933Z,73.52
2022-11-15T20:07:32.254Z,73.80
2022-11-15T20:10:18.144Z,74.28
2022-11-15T20:13:09.932Z,74.63
2022-11-15T20:15:52.259Z,74.85
2022-11-15T20:18:40.955Z,73.80
2022-11-15T20:21:24.303Z,73.42
2022-11-15T20:24:13.965Z,73.43
2022-11-15T20:26:56.290Z,73.54
2022-11-15T20:29:45.124Z,73.44
2022-11-15T20:32:27.227Z,73.65
2022-11-15T20:35:15.967Z,73.74
2022-11-15T20:37:58.217Z,73.45
2022-11-15T20:40:49.467Z,73.63
2022-11-15T20:43:37.928Z,73.56
2022-11-15T20:46:28.682Z,73.36
2022-11-15T20:49:11.231Z,73.66
2022-11-15T20:51:59.931Z,73.39
2022-11-15T20:54:43.286Z,73.31
2022-11-15T20:57:32.596Z,73.82
2022-11-15T21:00:16.271Z,73.45
2022-11-15T21:03:04.976Z,73.65
2022-11-15T21:05:49.221Z,73.62
2022-11-15T21:08:57.943Z,73.34
2022-11-15T21:12:04.929Z,73.36
2022-11-15T21:14:54.248Z,72.85
2022-11-15T21:17:36.866Z,72.81
2022-11-15T21:20:26.444Z,73.05
2022-11-15T21:23:14.865Z,72.94
2022-11-15T21:25:59.271Z,72.54
2022-11-15T21:28:47.945Z,73.23
2022-11-15T21:31:30.451Z,72.88
2022-11-15T21:34:18.960Z,72.99
2022-11-15T21:37:01.274Z,72.16
2022-11-15T21:39:49.870Z,72.92
2022-11-15T21:42:38.832Z,70.99
2022-11-15T21:45:28.794Z,71.62
2022-11-15T21:48:12.238Z,70.53
2022-11-15T21:51:08.979Z,71.01
2022-11-15T21:53:51.221Z,72.19
2022-11-15T21:56:40.200Z,70.35
2022-11-15T21:59:22.301Z,70.30
2022-11-15T22:02:22.943Z,69.88
2022-11-15T22:05:05.223Z,69.56
2022-11-15T22:07:53.870Z,69.99
2022-11-15T22:10:36.265Z,69.75
2022-11-15T22:13:24.919Z,69.36
2022-11-15T22:16:07.235Z,70.65
2022-11-15T22:18:55.868Z,70.78
2022-11-15T22:21:47.829Z,70.86
2022-11-15T22:24:42.823Z,70.91
2022-11-15T22:27:31.934Z,71.45
2022-11-15T22:30:15.369Z,71.23
2022-11-15T22:33:04.869Z,72.01
2022-11-15T22:35:48.317Z,71.92
2022-11-15T22:38:37.179Z,72.12
2022-11-15T22:41:19.281Z,72.03
2022-11-15T22:44:07.927Z,71.99
2022-11-15T22:46:57.014Z,71.73
2022-11-15T22:49:39.294Z,71.85
2022-11-15T22:52:27.918Z,71.92
2022-11-15T22:55:10.582Z,71.71
2022-11-15T22:57:59.939Z,71.48
2022-11-15T23:00:42.202Z,71.66
2022-11-15T23:03:30.989Z,71.71
2022-11-15T23:06:19.219Z,71.74
2022-11-15T23:09:04.942Z,72.28
2022-11-15T23:12:05.151Z,72.30
2022-11-15T23:14:53.857Z,72.85
2022-11-15T23:17:42.859Z,72.76
2022-11-15T23:20:42.508Z,72.57
2022-11-15T23:23:32.925Z,72.52
2022-11-15T23:26:22.992Z,72.88
2022-11-15T23:29:06.370Z,72.67
2022-11-15T23:32:12.954Z,72.43
2022-11-15T23:34:55.127Z,72.68
2022-11-15T23:37:43.879Z,72.41
2022-11-15T23:40:26.239Z,71.59
2022-11-15T23:43:15.016Z,71.94
2022-11-15T23:46:04.262Z,71.39
2022-11-15T23:48:46.986Z,71.32
2022-11-15T23:51:35.292Z,71.71
2022-11-15T23:54:17.842Z,71.26
2022-11-15T23:57:08.135Z,71.85
2022-11-15T23:59:53.921Z,71.22
